Time;durP1;ratioP1;P1;durP2;ratioP2;P2;SDS_P1;SDS_P2;PMS_P1;PMS_P2;Temp;Humidity;BMP_temperature;BMP_pressure;BME280_temperature;BME280_humidity;BME280_pressure;Samples;Min_cycle;Max_cycle;Signal;HPM_P1;HPM_P2
2024/01/14 00:00:55;;;;;;;12.97;9.87;;;2.50;99.90;;;;;;4937317;28;20239;-61
2024/01/14 00:03:22;;;;;;;17.70;10.30;;;2.60;99.90;;;;;;4935406;28;20236;-52
2024/01/14 00:05:47;;;;;;;14.37;9.73;;;2.60;99.90;;;;;;4956171;28;20229;-61
2024/01/14 00:08:13;;;;;;;21.70;10.63;;;2.60;99.90;;;;;;4952804;28;20376;-53
2024/01/14 00:10:38;;;;;;;15.60;10.30;;;2.80;99.90;;;;;;4952740;28;20295;-54
2024/01/14 00:13:04;;;;;;;20.27;10.13;;;2.70;99.90;;;;;;4948752;28;21029;-52
2024/01/14 00:15:31;;;;;;;17.00;10.90;;;2.80;99.90;;;;;;4952858;28;20211;-52
2024/01/14 00:17:56;;;;;;;18.00;12.03;;;2.70;99.90;;;;;;4953248;28;20200;-54
2024/01/14 00:20:22;;;;;;;14.33;11.07;;;2.80;99.90;;;;;;4952821;28;20234;-55
2024/01/14 00:22:47;;;;;;;18.93;11.93;;;2.80;99.90;;;;;;4953084;28;20287;-54
2024/01/14 00:25:13;;;;;;;15.47;10.27;;;2.80;99.90;;;;;;4959264;28;20212;-55
2024/01/14 00:27:38;;;;;;;17.30;10.40;;;2.90;99.90;;;;;;4952102;28;20228;-63
2024/01/14 00:30:06;;;;;;;14.00;9.83;;;2.90;99.90;;;;;;4953081;28;20602;-67
2024/01/14 00:32:31;;;;;;;13.33;9.30;;;2.80;99.90;;;;;;4950511;28;20210;-56
2024/01/14 00:34:57;;;;;;;17.77;9.40;;;2.80;99.90;;;;;;4932906;28;20212;-57
2024/01/14 00:37:23;;;;;;;10.50;7.33;;;2.80;99.90;;;;;;4936158;28;20200;-54
2024/01/14 00:39:49;;;;;;;14.47;8.60;;;2.80;99.90;;;;;;4946840;28;20216;-54
2024/01/14 00:42:15;;;;;;;11.97;8.33;;;2.80;99.90;;;;;;4949523;28;20217;-54
2024/01/14 00:44:43;;;;;;;14.70;8.67;;;2.80;99.90;;;;;;4952961;28;20555;-54
2024/01/14 00:47:09;;;;;;;10.50;6.80;;;2.80;99.90;;;;;;4952193;28;20341;-54
2024/01/14 00:49:34;;;;;;;11.77;8.33;;;2.90;99.90;;;;;;4944594;28;20286;-54
2024/01/14 00:52:00;;;;;;;9.47;7.80;;;2.90;99.90;;;;;;4951860;28;20394;-53
2024/01/14 00:54:26;;;;;;;8.47;6.60;;;2.90;99.90;;;;;;4949422;28;20215;-53
2024/01/14 00:56:51;;;;;;;12.10;6.83;;;2.80;99.90;;;;;;4936824;28;20236;-54
2024/01/14 00:59:17;;;;;;;11.80;6.73;;;2.90;99.90;;;;;;4951756;28;20207;-57
2024/01/14 01:01:43;;;;;;;6.80;6.10;;;3.00;99.90;;;;;;4954520;28;20205;-55
2024/01/14 01:04:08;;;;;;;10.77;6.10;;;2.90;99.90;;;;;;4931286;28;20203;-53
2024/01/14 01:06:34;;;;;;;10.50;5.67;;;2.80;99.90;;;;;;4954477;28;20224;-55
2024/01/14 01:09:00;;;;;;;6.37;5.03;;;2.80;99.90;;;;;;4950889;28;20223;-54
2024/01/14 01:11:26;;;;;;;8.37;5.13;;;2.70;99.90;;;;;;4935287;28;20300;-53
2024/01/14 01:13:51;;;;;;;9.60;5.70;;;2.60;99.90;;;;;;4951047;28;20295;-54
2024/01/14 01:16:17;;;;;;;6.73;5.87;;;2.50;99.90;;;;;;4935618;28;20327;-55
2024/01/14 01:18:43;;;;;;;7.13;4.63;;;2.60;99.90;;;;;;4952532;28;20205;-63
2024/01/14 01:21:08;;;;;;;6.40;5.33;;;2.70;99.90;;;;;;4951709;28;20678;-56
2024/01/14 01:23:34;;;;;;;8.67;5.53;;;2.50;99.90;;;;;;4936629;28;20235;-55
2024/01/14 01:26:00;;;;;;;6.13;4.70;;;2.40;99.90;;;;;;4953271;28;20241;-55
2024/01/14 01:28:25;;;;;;;7.40;5.20;;;2.40;99.90;;;;;;4953585;28;20612;-54
2024/01/14 01:30:51;;;;;;;7.83;4.67;;;2.30;99.90;;;;;;4957426;28;20221;-55
2024/01/14 01:33:16;;;;;;;8.57;5.70;;;2.30;99.90;;;;;;4953239;28;20241;-54
2024/01/14 01:35:42;;;;;;;7.77;5.10;;;2.50;99.90;;;;;;4936807;28;20755;-65
2024/01/14 01:38:07;;;;;;;8.33;4.53;;;2.40;99.90;;;;;;4955738;28;20203;-64
2024/01/14 01:40:33;;;;;;;10.60;5.83;;;2.30;99.90;;;;;;4953608;28;20368;-65
2024/01/14 01:42:58;;;;;;;6.97;5.40;;;2.30;99.90;;;;;;4938166;28;20686;-63
2024/01/14 01:45:24;;;;;;;5.70;4.27;;;2.30;99.90;;;;;;4953273;28;20521;-65
2024/01/14 01:47:49;;;;;;;6.43;5.80;;;2.40;99.90;;;;;;4953982;28;20198;-56
2024/01/14 01:50:15;;;;;;;8.10;5.80;;;2.40;99.90;;;;;;4933363;28;20370;-64
2024/01/14 01:52:41;;;;;;;9.57;5.20;;;2.30;99.90;;;;;;4950224;28;20856;-67
2024/01/14 01:55:08;;;;;;;9.57;5.57;;;2.30;99.90;;;;;;4957990;28;20681;-65
2024/01/14 01:57:34;;;;;;;6.03;5.03;;;2.30;99.90;;;;;;4954461;28;20204;-66
2024/01/14 02:00:00;;;;;;;9.83;5.33;;;2.50;99.90;;;;;;4932338;28;20477;-64
2024/01/14 02:02:26;;;;;;;9.23;6.07;;;2.40;99.90;;;;;;4933374;28;20245;-62
2024/01/14 02:04:51;;;;;;;10.07;6.07;;;2.40;99.90;;;;;;4950565;28;20294;-63
2024/01/14 02:07:20;;;;;;;7.40;4.90;;;2.40;99.90;;;;;;4950546;28;20307;-63
2024/01/14 02:09:45;;;;;;;7.53;6.27;;;2.50;99.90;;;;;;4951284;28;20289;-63
2024/01/14 02:12:11;;;;;;;7.03;5.33;;;2.50;99.90;;;;;;4989342;28;20212;-62
2024/01/14 02:14:36;;;;;;;10.37;6.37;;;2.50;99.90;;;;;;4956763;28;20211;-64
2024/01/14 02:17:02;;;;;;;6.77;5.37;;;2.60;99.90;;;;;;4965594;28;20196;-63
2024/01/14 02:19:28;;;;;;;8.13;5.27;;;2.40;99.90;;;;;;4948863;28;20207;-64
2024/01/14 02:22:01;;;;;;;11.17;5.20;;;2.40;99.90;;;;;;4956552;28;20205;-54
2024/01/14 02:24:29;;;;;;;7.63;4.73;;;2.30;99.90;;;;;;4951787;28;20527;-53
2024/01/14 02:26:55;;;;;;;10.40;4.43;;;2.30;99.90;;;;;;4957327;28;20718;-53
2024/01/14 02:29:21;;;;;;;7.67;4.70;;;2.30;99.90;;;;;;4965539;28;20211;-53
2024/01/14 02:31:47;;;;;;;8.50;4.33;;;2.40;99.90;;;;;;4960526;28;20194;-54
2024/01/14 02:34:13;;;;;;;11.20;4.30;;;2.60;99.90;;;;;;4963169;28;20216;-54
2024/01/14 02:36:38;;;;;;;5.87;4.03;;;2.40;99.90;;;;;;4944480;28;20845;-53
2024/01/14 02:39:05;;;;;;;7.77;4.60;;;2.30;99.90;;;;;;4936223;28;20226;-64
2024/01/14 02:41:31;;;;;;;3.73;3.17;;;2.30;99.90;;;;;;4950917;28;20243;-54
2024/01/14 02:43:57;;;;;;;6.40;3.93;;;2.50;99.90;;;;;;4962025;28;20221;-61
2024/01/14 02:46:23;;;;;;;4.77;3.50;;;2.40;99.90;;;;;;4969277;28;20701;-54
2024/01/14 02:48:49;;;;;;;8.87;4.90;;;2.30;99.90;;;;;;4953549;28;20230;-54
2024/01/14 02:51:14;;;;;;;7.57;3.07;;;2.30;99.90;;;;;;4955271;28;20333;-54
2024/01/14 02:53:40;;;;;;;5.10;2.90;;;2.30;99.90;;;;;;4955084;28;20242;-54
2024/01/14 02:56:05;;;;;;;10.90;4.57;;;2.30;99.90;;;;;;4957609;28;20614;-54
2024/01/14 02:58:31;;;;;;;9.17;3.47;;;2.30;99.90;;;;;;4938970;28;20205;-54
2024/01/14 03:00:56;;;;;;;7.53;3.67;;;2.30;99.90;;;;;;4954186;28;20227;-54
2024/01/14 03:03:21;;;;;;;9.40;3.23;;;2.30;99.90;;;;;;4960604;28;20201;-54
2024/01/14 03:05:47;;;;;;;8.53;3.13;;;2.50;99.90;;;;;;4955757;28;20294;-53
2024/01/14 03:08:13;;;;;;;6.33;2.97;;;2.40;99.90;;;;;;4935656;28;20210;-53
2024/01/14 03:10:38;;;;;;;6.40;2.97;;;2.20;99.90;;;;;;4952674;28;20203;-54
2024/01/14 03:13:04;;;;;;;3.50;2.50;;;2.20;99.90;;;;;;4956926;28;20216;-54
2024/01/14 03:15:30;;;;;;;6.30;2.70;;;2.30;99.90;;;;;;4961698;28;20321;-54
2024/01/14 03:17:56;;;;;;;4.67;2.10;;;2.30;99.90;;;;;;4960489;28;20204;-54
2024/01/14 03:20:22;;;;;;;8.30;2.40;;;2.20;99.90;;;;;;4961399;28;20274;-54
2024/01/14 03:22:48;;;;;;;2.43;1.87;;;2.20;99.90;;;;;;4961238;28;20204;-54
2024/01/14 03:25:13;;;;;;;6.13;2.50;;;2.30;99.90;;;;;;4953959;28;20237;-54
2024/01/14 03:27:39;;;;;;;6.83;2.80;;;2.30;99.90;;;;;;4951999;28;20318;-52
2024/01/14 03:30:05;;;;;;;6.27;1.83;;;2.30;99.90;;;;;;4950408;28;20236;-55
2024/01/14 03:32:31;;;;;;;6.53;2.37;;;2.20;99.90;;;;;;4938473;28;20205;-54
2024/01/14 03:34:56;;;;;;;3.07;1.20;;;2.20;99.90;;;;;;4959137;28;20215;-55
2024/01/14 03:37:22;;;;;;;8.60;2.33;;;2.20;99.90;;;;;;4936343;28;20203;-54
2024/01/14 03:39:49;;;;;;;6.03;1.80;;;2.20;99.90;;;;;;4962004;28;20228;-54
2024/01/14 03:42:15;;;;;;;7.23;2.20;;;2.20;99.90;;;;;;4956936;28;20211;-54
2024/01/14 03:44:41;;;;;;;4.40;1.70;;;2.40;99.90;;;;;;4956825;28;20196;-55
2024/01/14 03:47:07;;;;;;;5.70;2.03;;;2.30;99.90;;;;;;4940005;28;20315;-53
2024/01/14 03:49:33;;;;;;;3.47;2.10;;;2.20;99.90;;;;;;4936649;28;20286;-54
2024/01/14 03:51:58;;;;;;;4.13;1.87;;;2.30;99.90;;;;;;4942884;28;20288;-55
2024/01/14 03:54:24;;;;;;;6.77;1.60;;;2.30;99.90;;;;;;4956829;28;20204;-53
2024/01/14 03:56:49;;;;;;;4.97;1.80;;;2.20;99.90;;;;;;4960709;28;20216;-54
2024/01/14 03:59:15;;;;;;;7.43;2.43;;;2.10;99.90;;;;;;4934547;28;20559;-54
2024/01/14 04:01:43;;;;;;;3.37;1.67;;;2.20;99.90;;;;;;4950473;28;20625;-53
2024/01/14 04:04:09;;;;;;;7.73;2.60;;;2.30;99.90;;;;;;4953314;28;20660;-53
2024/01/14 04:06:35;;;;;;;6.23;1.77;;;2.20;99.90;;;;;;4938157;28;20220;-53
2024/01/14 04:09:01;;;;;;;9.17;2.53;;;2.20;99.90;;;;;;4959159;28;20919;-53
2024/01/14 04:11:26;;;;;;;7.53;1.37;;;2.20;99.90;;;;;;4953613;28;20214;-53
2024/01/14 04:13:52;;;;;;;5.10;1.57;;;2.30;99.90;;;;;;4960000;28;20299;-52
2024/01/14 04:16:18;;;;;;;6.73;3.77;;;2.20;99.90;;;;;;4947249;28;20297;-53
2024/01/14 04:18:43;;;;;;;7.13;2.00;;;2.30;99.90;;;;;;4962902;28;20857;-53
2024/01/14 04:21:22;;;;;;;5.47;2.47;;;2.30;99.90;;;;;;4960896;28;20561;-53
2024/01/14 04:23:48;;;;;;;8.77;2.17;;;2.40;99.90;;;;;;4959586;28;20204;-53
2024/01/14 04:26:13;;;;;;;10.03;3.40;;;2.40;99.90;;;;;;4964925;28;20232;-53
2024/01/14 04:28:39;;;;;;;5.87;2.23;;;2.40;99.90;;;;;;4945235;28;20196;-54
2024/01/14 04:31:04;;;;;;;5.57;2.00;;;2.40;99.90;;;;;;4957601;28;20899;-54
2024/01/14 04:33:31;;;;;;;6.33;1.80;;;2.40;99.90;;;;;;4956778;28;20207;-53
2024/01/14 04:35:56;;;;;;;9.67;2.43;;;2.40;99.90;;;;;;4956878;28;20787;-53
2024/01/14 04:38:21;;;;;;;6.53;2.47;;;2.40;99.90;;;;;;4956125;28;20196;-53
2024/01/14 04:40:47;;;;;;;7.17;1.67;;;2.40;99.90;;;;;;4957878;28;20700;-53
2024/01/14 04:43:12;;;;;;;6.40;2.00;;;2.40;99.90;;;;;;4943184;28;20205;-53
2024/01/14 04:45:38;;;;;;;8.33;2.67;;;2.50;99.90;;;;;;4959833;28;20305;-53
2024/01/14 04:48:04;;;;;;;8.67;3.63;;;2.50;99.90;;;;;;4956717;28;20712;-53
2024/01/14 04:50:30;;;;;;;6.17;2.53;;;2.50;99.90;;;;;;4956199;28;20751;-57
2024/01/14 04:52:55;;;;;;;6.97;1.70;;;2.50;99.90;;;;;;4959685;28;20530;-54
2024/01/14 04:55:21;;;;;;;10.50;2.87;;;2.50;99.90;;;;;;4951636;28;20265;-54
2024/01/14 04:57:47;;;;;;;6.10;2.53;;;2.60;99.90;;;;;;4962432;28;20233;-53
2024/01/14 05:00:13;;;;;;;9.67;2.80;;;2.60;99.90;;;;;;4956146;28;20225;-54
2024/01/14 05:02:39;;;;;;;9.73;3.10;;;2.60;99.90;;;;;;4961687;28;20199;-54
2024/01/14 05:05:05;;;;;;;9.77;2.23;;;2.60;99.90;;;;;;4960630;28;20204;-53
2024/01/14 05:07:30;;;;;;;15.77;3.73;;;2.50;99.90;;;;;;4958610;28;20709;-54
2024/01/14 05:09:56;;;;;;;8.63;2.50;;;2.60;99.90;;;;;;4938919;28;20212;-54
2024/01/14 05:12:22;;;;;;;8.30;2.60;;;2.50;99.90;;;;;;4956469;28;20242;-54
2024/01/14 05:14:47;;;;;;;9.33;2.50;;;2.50;99.90;;;;;;4957763;28;20293;-54
2024/01/14 05:17:14;;;;;;;9.30;2.23;;;2.50;99.90;;;;;;4941251;28;20788;-54
2024/01/14 05:19:40;;;;;;;8.43;2.30;;;2.50;99.90;;;;;;4937209;28;20208;-55
2024/01/14 05:22:06;;;;;;;11.53;2.77;;;2.60;99.90;;;;;;4955698;28;20628;-54
2024/01/14 05:24:32;;;;;;;8.00;2.00;;;2.60;99.90;;;;;;4960875;28;20679;-54
2024/01/14 05:26:57;;;;;;;8.17;2.60;;;2.60;99.90;;;;;;4958049;28;20252;-64
2024/01/14 05:29:23;;;;;;;10.20;2.80;;;2.60;99.90;;;;;;4945513;28;20674;-63
2024/01/14 05:31:48;;;;;;;18.50;3.33;;;2.60;99.90;;;;;;4954420;28;20212;-54
2024/01/14 05:34:14;;;;;;;10.17;2.73;;;2.70;99.90;;;;;;4960494;28;20223;-54
2024/01/14 05:36:40;;;;;;;10.97;2.27;;;2.70;99.90;;;;;;4951701;28;21047;-54
2024/01/14 05:39:06;;;;;;;12.20;2.67;;;2.60;99.90;;;;;;4955594;28;20231;-54
2024/01/14 05:41:31;;;;;;;5.93;2.37;;;2.60;99.90;;;;;;4961195;28;20254;-53
2024/01/14 05:43:57;;;;;;;7.33;2.97;;;2.60;99.90;;;;;;4956419;28;20244;-53
2024/01/14 05:46:23;;;;;;;8.77;2.70;;;2.60;99.90;;;;;;4960922;28;20220;-54
2024/01/14 05:48:49;;;;;;;10.07;3.40;;;2.60;99.90;;;;;;4952020;28;20257;-53
2024/01/14 05:51:15;;;;;;;7.17;2.50;;;2.60;99.90;;;;;;4952839;28;20206;-54
2024/01/14 05:53:40;;;;;;;8.40;2.47;;;2.60;99.90;;;;;;4955444;28;20311;-53
2024/01/14 05:56:06;;;;;;;7.97;2.83;;;2.60;99.90;;;;;;4953565;28;20205;-53
2024/01/14 05:58:34;;;;;;;9.70;2.50;;;2.50;99.90;;;;;;4942111;28;20630;-54
2024/01/14 06:01:00;;;;;;;6.50;2.37;;;2.60;99.90;;;;;;4941837;28;20295;-55
2024/01/14 06:03:26;;;;;;;5.43;2.30;;;2.50;99.90;;;;;;4949836;28;20605;-54
2024/01/14 06:05:51;;;;;;;8.27;2.30;;;2.60;99.90;;;;;;4955002;28;20214;-53
2024/01/14 06:08:17;;;;;;;7.23;2.83;;;2.50;99.90;;;;;;4963149;28;20205;-53
2024/01/14 06:10:42;;;;;;;9.33;2.40;;;2.50;99.90;;;;;;4936193;28;20294;-53
2024/01/14 06:13:08;;;;;;;5.90;2.30;;;2.50;99.90;;;;;;4943448;28;20210;-53
2024/01/14 06:15:33;;;;;;;14.30;2.60;;;2.50;99.90;;;;;;4949631;28;20289;-54
2024/01/14 06:17:59;;;;;;;9.53;3.03;;;2.40;99.90;;;;;;4961131;28;20200;-53
2024/01/14 06:20:24;;;;;;;8.40;2.37;;;2.40;99.90;;;;;;4954248;28;20220;-53
2024/01/14 06:22:50;;;;;;;7.43;2.23;;;2.40;99.90;;;;;;4961508;28;20697;-53
2024/01/14 06:25:15;;;;;;;8.30;2.53;;;2.40;99.90;;;;;;4958753;28;20278;-53
2024/01/14 06:27:41;;;;;;;10.73;2.80;;;2.40;99.90;;;;;;4956969;28;20198;-53
2024/01/14 06:30:07;;;;;;;9.93;2.53;;;2.40;99.90;;;;;;4940591;28;20223;-54
2024/01/14 06:32:32;;;;;;;4.40;2.03;;;2.40;99.90;;;;;;4962638;28;20582;-54
2024/01/14 06:34:58;;;;;;;9.10;3.03;;;2.40;99.90;;;;;;4962585;28;20197;-53
2024/01/14 06:37:24;;;;;;;3.97;2.47;;;2.40;99.90;;;;;;4956107;28;20717;-54
2024/01/14 06:39:49;;;;;;;8.27;2.53;;;2.40;99.90;;;;;;4957846;28;20238;-54
2024/01/14 06:42:15;;;;;;;7.97;2.20;;;2.40;99.90;;;;;;4956912;28;20211;-53
2024/01/14 06:44:41;;;;;;;7.23;2.40;;;2.40;99.90;;;;;;4956684;28;20762;-53
2024/01/14 06:47:06;;;;;;;5.83;2.53;;;2.50;99.90;;;;;;4974429;28;20224;-54
2024/01/14 06:49:32;;;;;;;14.67;2.70;;;2.40;99.90;;;;;;4945014;28;20705;-54
2024/01/14 06:51:57;;;;;;;9.70;2.60;;;2.40;99.90;;;;;;4952088;28;20376;-54
2024/01/14 06:54:23;;;;;;;7.40;2.90;;;2.40;99.90;;;;;;4954343;28;20219;-54
2024/01/14 06:56:48;;;;;;;4.93;2.73;;;2.40;99.90;;;;;;4960029;28;20578;-54
2024/01/14 06:59:18;;;;;;;7.40;2.40;;;2.40;99.90;;;;;;4964689;28;20573;-54
2024/01/14 07:01:45;;;;;;;7.97;2.20;;;2.40;99.90;;;;;;4955231;28;20242;-55
2024/01/14 07:04:11;;;;;;;10.07;3.10;;;2.40;99.90;;;;;;4938157;28;20212;-54
2024/01/14 07:06:36;;;;;;;9.40;2.90;;;2.40;99.90;;;;;;4955480;28;20536;-65
2024/01/14 07:09:02;;;;;;;7.80;2.27;;;2.40;99.90;;;;;;4940628;28;20213;-54
2024/01/14 07:11:27;;;;;;;9.77;2.67;;;2.30;99.90;;;;;;4960876;28;20290;-66
2024/01/14 07:13:53;;;;;;;6.93;2.37;;;2.30;99.90;;;;;;4930301;28;20211;-54
2024/01/14 07:16:18;;;;;;;4.30;2.77;;;2.30;99.90;;;;;;4953012;28;20234;-53
2024/01/14 07:18:44;;;;;;;7.57;2.00;;;2.30;99.90;;;;;;4951732;28;20330;-53
2024/01/14 07:21:12;;;;;;;9.17;2.83;;;2.30;99.90;;;;;;4950512;28;20283;-53
2024/01/14 07:23:38;;;;;;;9.33;2.70;;;2.30;99.90;;;;;;4953516;28;20208;-53
2024/01/14 07:26:05;;;;;;;3.90;2.43;;;2.30;99.90;;;;;;4953254;28;20278;-68
2024/01/14 07:28:31;;;;;;;14.83;2.77;;;2.40;99.90;;;;;;4949199;28;20663;-63
2024/01/14 07:30:57;;;;;;;8.43;3.07;;;2.40;99.90;;;;;;4950556;28;20967;-55
2024/01/14 07:33:22;;;;;;;5.57;2.33;;;2.40;99.90;;;;;;4951059;28;20212;-54
2024/01/14 07:35:48;;;;;;;7.63;2.33;;;2.40;99.90;;;;;;4957275;28;20208;-55
2024/01/14 07:38:13;;;;;;;7.03;2.20;;;2.40;99.90;;;;;;4940647;28;20212;-55
2024/01/14 07:40:41;;;;;;;8.13;2.43;;;2.30;99.90;;;;;;4956653;28;20198;-55
2024/01/14 07:43:07;;;;;;;6.10;2.10;;;2.40;99.90;;;;;;4943806;28;20195;-54
2024/01/14 07:45:33;;;;;;;5.90;2.13;;;2.40;99.90;;;;;;4953401;28;20301;-56
2024/01/14 07:47:58;;;;;;;6.83;2.40;;;2.40;99.90;;;;;;4952740;28;20213;-54
2024/01/14 07:50:24;;;;;;;4.27;1.87;;;2.40;99.90;;;;;;4951654;28;20636;-54
2024/01/14 07:52:50;;;;;;;6.03;2.23;;;2.40;99.90;;;;;;4931066;28;20215;-54
2024/01/14 07:55:16;;;;;;;7.13;2.63;;;2.50;99.90;;;;;;4955110;28;20205;-56
2024/01/14 07:57:41;;;;;;;7.97;2.43;;;2.50;99.90;;;;;;4951373;28;20210;-53
2024/01/14 08:00:07;;;;;;;4.30;2.03;;;2.40;99.90;;;;;;4951354;28;20212;-54
2024/01/14 08:02:33;;;;;;;7.77;2.10;;;2.40;99.90;;;;;;4950700;28;20210;-65
2024/01/14 08:04:58;;;;;;;6.90;2.27;;;2.50;99.90;;;;;;4952374;28;20213;-63
2024/01/14 08:07:24;;;;;;;4.93;1.40;;;2.50;99.90;;;;;;4953150;28;20226;-56
2024/01/14 08:09:49;;;;;;;5.07;1.53;;;2.40;99.90;;;;;;4949096;28;20203;-54
2024/01/14 08:12:15;;;;;;;5.57;2.60;;;2.50;99.90;;;;;;4933117;28;20222;-54
2024/01/14 08:14:40;;;;;;;7.83;2.10;;;2.60;99.90;;;;;;4933419;28;20243;-53
2024/01/14 08:17:06;;;;;;;3.03;1.60;;;2.50;99.90;;;;;;4954200;28;20767;-54
2024/01/14 08:19:31;;;;;;;3.93;1.60;;;2.50;99.90;;;;;;4941919;28;20204;-54
2024/01/14 08:21:57;;;;;;;6.83;2.13;;;2.50;99.90;;;;;;4952506;28;20685;-64
2024/01/14 08:24:22;;;;;;;2.93;1.60;;;2.40;99.90;;;;;;4962674;28;20207;-55
2024/01/14 08:26:48;;;;;;;3.53;1.50;;;2.50;99.90;;;;;;4956396;28;20610;-59
2024/01/14 08:29:14;;;;;;;4.23;1.60;;;2.80;99.90;;;;;;4950238;28;20211;-55
2024/01/14 08:31:40;;;;;;;12.93;2.60;;;2.70;99.90;;;;;;4936088;28;20201;-56
2024/01/14 08:34:07;;;;;;;2.73;1.40;;;2.60;99.90;;;;;;4938111;28;20784;-62
2024/01/14 08:36:32;;;;;;;6.13;1.60;;;2.60;99.90;;;;;;4949161;28;20235;-55
2024/01/14 08:38:58;;;;;;;2.47;1.07;;;2.70;99.90;;;;;;4957323;28;21061;-54
2024/01/14 08:41:24;;;;;;;5.83;1.73;;;2.60;99.90;;;;;;4955761;28;20204;-54
2024/01/14 08:43:53;;;;;;;9.03;2.10;;;2.80;99.90;;;;;;4958020;28;20209;-54
2024/01/14 08:46:18;;;;;;;5.73;1.50;;;2.70;99.90;;;;;;4963823;28;20229;-54
2024/01/14 08:48:44;;;;;;;2.57;1.30;;;2.80;99.90;;;;;;4958188;28;20258;-54
2024/01/14 08:51:12;;;;;;;6.60;1.67;;;2.80;99.90;;;;;;4958996;28;20970;-66
2024/01/14 08:53:38;;;;;;;3.77;1.63;;;2.90;99.90;;;;;;4958600;28;20208;-53
2024/01/14 08:56:03;;;;;;;5.50;1.83;;;2.80;99.90;;;;;;4950992;28;20701;-53
2024/01/14 08:58:29;;;;;;;5.07;1.93;;;2.80;99.90;;;;;;4957880;28;20766;-54
2024/01/14 09:00:55;;;;;;;9.07;1.53;;;2.80;99.90;;;;;;4955237;28;20546;-53
2024/01/14 09:03:21;;;;;;;4.87;1.77;;;2.80;99.90;;;;;;4952115;28;20232;-54
2024/01/14 09:05:47;;;;;;;5.10;1.10;;;2.80;99.90;;;;;;4955724;28;20316;-54
2024/01/14 09:08:16;;;;;;;2.77;1.53;;;2.90;99.90;;;;;;4949862;28;20232;-54
2024/01/14 09:10:42;;;;;;;4.00;1.57;;;3.10;99.90;;;;;;4946457;28;20636;-54
2024/01/14 09:13:07;;;;;;;4.30;2.67;;;3.10;99.90;;;;;;4951365;28;20713;-54
2024/01/14 09:15:34;;;;;;;4.90;1.63;;;2.90;99.90;;;;;;4950566;28;20553;-55
2024/01/14 09:17:59;;;;;;;4.27;1.73;;;2.90;99.90;;;;;;4953914;28;20305;-53
2024/01/14 09:20:25;;;;;;;3.97;1.60;;;2.90;99.90;;;;;;4955586;28;20548;-53
2024/01/14 09:22:50;;;;;;;2.77;1.50;;;2.80;99.90;;;;;;4937955;28;20206;-54
2024/01/14 09:25:16;;;;;;;4.50;1.67;;;2.70;99.90;;;;;;4953564;28;20288;-59
2024/01/14 09:27:41;;;;;;;8.93;1.53;;;2.90;99.90;;;;;;4958530;28;20228;-66
2024/01/14 09:30:07;;;;;;;4.10;1.63;;;2.80;99.90;;;;;;4936983;28;20669;-57
2024/01/14 09:32:33;;;;;;;5.40;1.60;;;2.90;99.90;;;;;;4955990;28;20250;-64
2024/01/14 09:37:34;;;;;;;6.07;2.03;;;2.90;99.90;;;;;;4961602;23;20237;-55
2024/01/14 09:40:00;;;;;;;5.60;1.80;;;2.80;99.90;;;;;;4958263;28;20913;-55
2024/01/14 09:42:34;;;;;;;6.13;2.13;;;2.80;99.90;;;;;;4958623;28;20213;-53
2024/01/14 09:45:00;;;;;;;6.33;1.43;;;2.80;99.90;;;;;;4975495;28;20580;-54
2024/01/14 09:47:26;;;;;;;6.33;2.33;;;2.80;99.90;;;;;;4969454;28;20235;-53
2024/01/14 09:49:54;;;;;;;4.77;1.63;;;3.00;99.90;;;;;;4971696;28;20222;-56
2024/01/14 09:52:21;;;;;;;3.73;1.33;;;2.90;99.90;;;;;;4971750;28;20326;-56
2024/01/14 09:54:47;;;;;;;10.50;2.37;;;2.90;99.90;;;;;;4967933;28;20678;-54
2024/01/14 09:57:17;;;;;;;4.97;2.20;;;2.90;99.90;;;;;;4976681;28;20256;-55
2024/01/14 09:59:43;;;;;;;3.63;1.40;;;2.90;99.90;;;;;;4972699;28;20273;-55
2024/01/14 10:02:11;;;;;;;8.67;1.70;;;3.10;99.90;;;;;;4973239;28;20232;-55
2024/01/14 10:04:40;;;;;;;6.67;1.83;;;3.10;99.90;;;;;;4966691;28;20200;-55
2024/01/14 10:07:06;;;;;;;7.30;2.00;;;3.00;99.90;;;;;;4982160;28;20219;-66
2024/01/14 10:09:32;;;;;;;5.23;2.00;;;3.10;99.90;;;;;;4973208;28;20204;-55
2024/01/14 10:11:58;;;;;;;6.27;1.90;;;3.10;99.90;;;;;;4967357;28;20921;-56
2024/01/14 10:14:27;;;;;;;6.10;1.90;;;3.00;99.90;;;;;;4960044;28;20212;-55
2024/01/14 10:16:59;;;;;;;4.30;1.83;;;3.00;99.90;;;;;;4948555;28;20204;-54
2024/01/14 10:19:24;;;;;;;5.10;1.90;;;3.10;99.90;;;;;;4969209;28;20206;-55
2024/01/14 10:21:53;;;;;;;6.10;1.37;;;3.10;99.90;;;;;;4953977;28;20269;-60
2024/01/14 10:24:20;;;;;;;5.10;1.20;;;3.10;99.90;;;;;;4962314;28;20555;-55
2024/01/14 10:26:46;;;;;;;10.47;2.43;;;3.00;99.90;;;;;;4978449;28;20222;-56
2024/01/14 10:29:12;;;;;;;7.23;2.10;;;3.00;99.90;;;;;;4973598;28;20678;-54
2024/01/14 10:31:38;;;;;;;6.30;2.00;;;3.00;99.90;;;;;;4974218;28;20207;-53
2024/01/14 10:34:04;;;;;;;7.57;1.97;;;3.20;99.90;;;;;;4978574;28;20197;-53
2024/01/14 10:36:32;;;;;;;4.23;1.30;;;3.10;99.90;;;;;;4981008;28;20200;-53
2024/01/14 10:39:01;;;;;;;14.93;2.27;;;3.10;99.90;;;;;;4977417;28;20255;-54
2024/01/14 10:41:27;;;;;;;6.80;1.90;;;3.10;99.90;;;;;;4972919;28;20212;-55
2024/01/14 10:43:53;;;;;;;3.63;1.40;;;3.10;99.90;;;;;;4979602;28;20844;-57
2024/01/14 10:46:19;;;;;;;6.63;1.73;;;3.10;99.90;;;;;;4976050;28;20224;-54
2024/01/14 10:49:07;;;;;;;6.07;1.57;;;3.10;99.90;;;;;;4975061;28;20200;-55
2024/01/14 10:51:39;;;;;;;8.97;2.50;;;3.20;99.90;;;;;;4954355;28;20209;-54
2024/01/14 10:54:10;;;;;;;9.37;2.07;;;3.20;99.90;;;;;;4959267;28;20293;-54
2024/01/14 10:56:39;;;;;;;6.07;1.50;;;3.20;99.90;;;;;;4971988;28;20207;-54
2024/01/14 10:59:11;;;;;;;5.60;2.30;;;3.20;99.90;;;;;;4974978;28;20211;-54
2024/01/14 11:01:47;;;;;;;6.50;2.10;;;3.30;99.90;;;;;;4981924;28;20204;-55
2024/01/14 11:04:13;;;;;;;8.43;2.23;;;3.30;99.90;;;;;;4978463;28;20247;-54
2024/01/14 11:06:39;;;;;;;3.40;1.90;;;3.40;99.90;;;;;;4978307;28;20415;-54
2024/01/14 11:09:05;;;;;;;8.50;2.13;;;3.40;99.90;;;;;;4973793;28;20204;-55
2024/01/14 11:11:41;;;;;;;4.77;2.00;;;3.40;99.90;;;;;;4955173;28;20212;-54
2024/01/14 11:14:21;;;;;;;5.93;1.57;;;3.40;99.90;;;;;;4975231;28;20240;-54
2024/01/14 11:16:56;;;;;;;6.27;2.33;;;3.50;99.90;;;;;;4976853;28;20228;-54
2024/01/14 11:19:29;;;;;;;6.50;2.00;;;3.50;99.90;;;;;;4975856;28;20220;-54
2024/01/14 11:22:09;;;;;;;8.27;2.13;;;3.70;99.90;;;;;;4973009;28;20208;-57
2024/01/14 11:24:34;;;;;;;3.23;1.90;;;3.60;99.90;;;;;;4968141;28;20685;-54
2024/01/14 11:27:00;;;;;;;6.50;1.40;;;3.70;99.90;;;;;;4967446;28;20307;-54
2024/01/14 11:29:39;;;;;;;6.07;2.20;;;3.70;99.90;;;;;;4975490;28;20831;-53
2024/01/14 11:32:11;;;;;;;3.70;1.47;;;3.70;99.90;;;;;;4952786;28;20211;-54
2024/01/14 11:34:46;;;;;;;3.67;2.33;;;3.60;99.90;;;;;;4975129;28;20204;-53
2024/01/14 11:37:30;;;;;;;5.13;1.93;;;3.50;99.90;;;;;;4976285;28;20206;-53
2024/01/14 11:40:22;;;;;;;3.23;1.60;;;3.50;99.90;;;;;;4975895;28;20204;-53
2024/01/14 11:42:53;;;;;;;6.60;1.97;;;3.70;99.90;;;;;;4967211;28;20231;-53
2024/01/14 11:45:25;;;;;;;3.10;1.77;;;3.90;99.90;;;;;;4980340;28;20204;-54
2024/01/14 11:47:55;;;;;;;3.60;1.40;;;4.10;99.90;;;;;;4995826;28;20542;-53
2024/01/14 11:50:21;;;;;;;4.57;1.60;;;4.10;99.90;;;;;;4971481;28;20774;-54
2024/01/14 11:52:51;;;;;;;3.53;3.23;;;3.90;99.90;;;;;;4978165;28;20219;-53
2024/01/14 11:55:38;;;;;;;1.90;1.50;;;4.00;99.90;;;;;;4979260;28;20230;-53
2024/01/14 11:58:15;;;;;;;5.27;1.73;;;4.00;99.90;;;;;;4961820;28;20223;-54
2024/01/14 12:00:41;;;;;;;3.67;1.53;;;3.80;99.90;;;;;;4958746;28;20238;-53
2024/01/14 12:03:12;;;;;;;6.33;2.10;;;3.70;99.90;;;;;;4975831;28;20283;-53
2024/01/14 12:05:40;;;;;;;4.37;2.13;;;3.70;99.90;;;;;;4973871;28;20217;-53
2024/01/14 12:08:06;;;;;;;4.97;1.37;;;3.90;99.90;;;;;;4970537;28;20275;-53
2024/01/14 12:10:32;;;;;;;3.03;1.30;;;3.80;99.90;;;;;;4975557;28;20274;-55
2024/01/14 12:13:02;;;;;;;6.60;2.47;;;3.80;99.90;;;;;;4977751;28;20203;-53
2024/01/14 12:15:31;;;;;;;3.67;1.60;;;3.70;99.90;;;;;;4968130;28;20206;-54
2024/01/14 12:17:58;;;;;;;6.97;2.03;;;3.60;99.90;;;;;;4975372;28;20296;-54
2024/01/14 12:20:24;;;;;;;5.90;2.70;;;3.70;99.90;;;;;;4977100;28;20200;-54
2024/01/14 12:23:02;;;;;;;8.90;1.87;;;3.80;99.90;;;;;;4971847;28;20250;-55
2024/01/14 12:25:28;;;;;;;4.17;1.33;;;3.70;99.90;;;;;;4974612;28;20208;-54
2024/01/14 12:27:54;;;;;;;3.70;1.53;;;4.00;99.90;;;;;;4971688;28;20204;-56
2024/01/14 12:30:24;;;;;;;3.87;3.00;;;3.70;99.90;;;;;;4978504;28;20214;-54
2024/01/14 12:32:50;;;;;;;3.13;1.77;;;3.60;99.90;;;;;;4975308;28;20250;-53
2024/01/14 12:35:15;;;;;;;4.37;1.60;;;3.60;99.90;;;;;;4971258;28;20285;-55
2024/01/14 12:37:41;;;;;;;7.77;2.53;;;3.60;99.90;;;;;;4970068;28;20282;-55
2024/01/14 12:40:07;;;;;;;8.17;2.03;;;3.50;99.90;;;;;;4973389;28;20599;-56
2024/01/14 12:42:33;;;;;;;8.17;1.57;;;3.60;99.90;;;;;;4968628;28;20283;-55
2024/01/14 12:45:03;;;;;;;6.40;1.83;;;3.60;99.90;;;;;;4975662;28;20800;-55
2024/01/14 12:47:29;;;;;;;7.53;2.00;;;3.80;99.90;;;;;;4977199;28;20251;-55
2024/01/14 12:49:55;;;;;;;8.50;1.73;;;3.60;99.90;;;;;;4973187;28;20204;-55
2024/01/14 12:52:21;;;;;;;2.83;1.70;;;3.50;99.90;;;;;;4948469;28;20206;-55
2024/01/14 12:54:50;;;;;;;3.30;1.50;;;3.60;99.90;;;;;;4971917;28;20198;-55